Time;durP1;ratioP1;P1;durP2;ratioP2;P2;SDS_P1;SDS_P2;PMS_P1;PMS_P2;Temp;Humidity;BMP_temperature;BMP_pressure;BME280_temperature;BME280_humidity;BME280_pressure;Samples;Min_cycle;Max_cycle;Signal;HPM_P1;HPM_P2
2022/05/21 00:02:18;;;;;;;42.53;24.90;;;;;;;;;;7330913;19;153367;-20
2022/05/21 00:04:50;;;;;;;45.47;25.50;;;;;;;;;;7331615;19;161430;-18
2022/05/21 00:07:21;;;;;;;44.70;24.75;;;;;;;;;;7331942;19;162299;-18
2022/05/21 00:09:52;;;;;;;45.25;26.42;;;;;;;;;;7329962;19;154208;-18
2022/05/21 00:12:24;;;;;;;40.33;25.80;;;;;;;;;;7330603;19;153871;-19
2022/05/21 00:14:58;;;;;;;45.20;26.05;;;;;;;;;;7331633;19;161822;-18
2022/05/21 00:17:29;;;;;;;43.67;26.48;;;;;;;;;;7331768;19;162390;-18
2022/05/21 00:20:00;;;;;;;40.78;24.77;;;;;;;;;;7332038;19;154171;-18
2022/05/21 00:22:32;;;;;;;40.95;25.88;;;;;;;;;;7332005;19;153670;-18
2022/05/21 00:25:03;;;;;;;38.25;23.48;;;;;;;;;;7331168;19;162016;-18
2022/05/21 00:27:35;;;;;;;37.45;23.58;;;;;;;;;;7330404;19;162507;-18
2022/05/21 00:30:10;;;;;;;35.78;24.42;;;;;;;;;;7331756;19;154083;-18
2022/05/21 00:32:41;;;;;;;38.95;22.90;;;;;;;;;;7331217;19;153589;-18
2022/05/21 00:35:13;;;;;;;39.58;24.73;;;;;;;;;;7329421;19;161597;-18
2022/05/21 00:37:44;;;;;;;37.50;23.38;;;;;;;;;;7329630;19;162548;-18
2022/05/21 00:40:16;;;;;;;34.88;22.08;;;;;;;;;;7331677;19;154279;-18
2022/05/21 00:42:49;;;;;;;35.85;23.95;;;;;;;;;;7331174;19;153652;-18
2022/05/21 00:45:24;;;;;;;39.08;23.83;;;;;;;;;;7330224;19;161932;-19
2022/05/21 00:47:55;;;;;;;39.25;22.15;;;;;;;;;;7330278;19;162320;-16
2022/05/21 00:50:30;;;;;;;39.25;22.90;;;;;;;;;;7330993;19;154025;-17
2022/05/21 00:53:02;;;;;;;36.15;21.88;;;;;;;;;;7329589;19;153706;-17
2022/05/21 00:55:34;;;;;;;36.43;23.30;;;;;;;;;;7330403;19;162039;-17
2022/05/21 01:00:56;;;;;;;37.83;22.88;;;;;;;;;;7330558;19;154050;-17
2022/05/21 01:03:31;;;;;;;36.63;23.25;;;;;;;;;;7330556;19;153931;-17
2022/05/21 01:06:05;;;;;;;38.20;23.00;;;;;;;;;;7329144;19;162123;-17
2022/05/21 01:08:37;;;;;;;35.65;21.73;;;;;;;;;;7331622;19;162652;-17
2022/05/21 01:11:13;;;;;;;31.30;20.52;;;;;;;;;;7329199;19;154003;-17
2022/05/21 01:13:46;;;;;;;33.70;21.65;;;;;;;;;;7329172;19;153634;-17
2022/05/21 01:16:20;;;;;;;34.40;20.88;;;;;;;;;;7329578;19;161819;-20
2022/05/21 01:18:52;;;;;;;33.63;21.08;;;;;;;;;;7333127;19;162281;-17
2022/05/21 01:21:23;;;;;;;31.00;19.95;;;;;;;;;;7328908;19;154201;-23
2022/05/21 01:23:57;;;;;;;31.95;20.95;;;;;;;;;;7327304;19;153603;-22
2022/05/21 01:26:30;;;;;;;31.08;20.50;;;;;;;;;;7328752;19;162118;-18
2022/05/21 01:29:03;;;;;;;29.95;20.85;;;;;;;;;;7329665;19;162526;-17
2022/05/21 01:31:35;;;;;;;30.80;20.70;;;;;;;;;;7330044;19;154051;-17
2022/05/21 01:34:07;;;;;;;29.08;19.10;;;;;;;;;;7330393;19;153675;-18
2022/05/21 01:36:38;;;;;;;29.50;18.08;;;;;;;;;;7329533;19;162198;-19
2022/05/21 01:39:12;;;;;;;30.25;20.92;;;;;;;;;;7329464;19;162322;-18
2022/05/21 01:41:45;;;;;;;31.85;20.20;;;;;;;;;;7329612;19;154212;-18
2022/05/21 01:47:03;;;;;;;30.73;20.42;;;;;;;;;;7327696;19;162139;-18
2022/05/21 01:49:34;;;;;;;32.90;19.55;;;;;;;;;;7328896;19;162599;-19
2022/05/21 01:52:07;;;;;;;29.90;19.45;;;;;;;;;;7329403;19;154311;-18
2022/05/21 01:54:42;;;;;;;30.00;19.85;;;;;;;;;;7327798;19;154379;-18
2022/05/21 01:57:13;;;;;;;31.70;20.52;;;;;;;;;;7328792;19;161640;-18
2022/05/21 01:59:45;;;;;;;28.60;18.73;;;;;;;;;;7327328;19;162449;-18
2022/05/21 02:02:16;;;;;;;29.40;20.25;;;;;;;;;;7328813;19;154383;-18
2022/05/21 02:04:48;;;;;;;28.17;18.75;;;;;;;;;;7328659;19;153874;-18
2022/05/21 02:07:19;;;;;;;28.15;18.73;;;;;;;;;;7326780;19;161952;-18
2022/05/21 02:09:52;;;;;;;29.20;18.55;;;;;;;;;;7325631;19;162571;-17
2022/05/21 02:12:24;;;;;;;27.83;18.35;;;;;;;;;;7328809;19;153933;-17
2022/05/21 02:14:56;;;;;;;27.73;18.93;;;;;;;;;;7328641;19;153709;-18
2022/05/21 02:17:28;;;;;;;26.47;17.50;;;;;;;;;;7328159;19;161628;-18
2022/05/21 02:19:59;;;;;;;29.08;18.40;;;;;;;;;;7328140;19;162545;-18
2022/05/21 02:22:31;;;;;;;26.05;16.48;;;;;;;;;;7328426;19;154372;-17
2022/05/21 02:25:05;;;;;;;26.65;18.38;;;;;;;;;;7327104;19;153672;-18
2022/05/21 02:27:37;;;;;;;27.52;17.55;;;;;;;;;;7326105;19;161999;-17
2022/05/21 02:30:10;;;;;;;24.50;17.13;;;;;;;;;;7327522;19;162413;-17
2022/05/21 02:32:41;;;;;;;22.63;16.23;;;;;;;;;;7327896;19;154218;-18
2022/05/21 02:35:13;;;;;;;24.20;16.77;;;;;;;;;;7330437;19;153180;-18
2022/05/21 02:40:30;;;;;;;29.70;18.25;;;;;;;;;;7332395;19;162620;-17
2022/05/21 02:43:01;;;;;;;25.80;17.17;;;;;;;;;;7334761;19;154050;-18
2022/05/21 02:45:33;;;;;;;23.80;15.10;;;;;;;;;;7334611;19;153507;-16
2022/05/21 02:48:04;;;;;;;25.17;16.98;;;;;;;;;;7332446;19;161793;-18
2022/05/21 02:50:37;;;;;;;22.67;16.30;;;;;;;;;;7334035;19;162357;-17
2022/05/21 02:53:10;;;;;;;22.80;16.70;;;;;;;;;;7334190;19;153987;-17
2022/05/21 02:55:44;;;;;;;22.85;15.57;;;;;;;;;;7334043;19;153569;-17
2022/05/21 02:58:15;;;;;;;24.48;16.60;;;;;;;;;;7333840;19;162172;-17
2022/05/21 03:00:48;;;;;;;24.17;17.02;;;;;;;;;;7334047;19;162426;-17
2022/05/21 03:03:19;;;;;;;24.27;16.87;;;;;;;;;;7333742;19;154026;-17
2022/05/21 03:05:51;;;;;;;22.58;15.45;;;;;;;;;;7333741;19;153546;-17
2022/05/21 03:11:08;;;;;;;22.30;16.10;;;;;;;;;;7332312;19;162566;-17
2022/05/21 03:13:39;;;;;;;26.15;16.95;;;;;;;;;;7335811;19;154047;-17
2022/05/21 03:16:11;;;;;;;22.83;15.98;;;;;;;;;;7333517;19;153553;-16
2022/05/21 03:18:43;;;;;;;23.23;15.45;;;;;;;;;;7333627;19;162099;-18
2022/05/21 03:21:15;;;;;;;24.60;17.08;;;;;;;;;;7332730;19;162142;-18
2022/05/21 03:23:49;;;;;;;23.58;16.08;;;;;;;;;;7333186;19;154180;-19
2022/05/21 03:26:24;;;;;;;26.00;16.70;;;;;;;;;;7334091;19;154304;-18
2022/05/21 03:28:56;;;;;;;24.23;16.58;;;;;;;;;;7331273;19;161870;-17
2022/05/21 03:31:27;;;;;;;24.42;15.95;;;;;;;;;;7333209;19;162717;-17
2022/05/21 03:33:59;;;;;;;22.63;16.17;;;;;;;;;;7333600;19;154239;-18
2022/05/21 03:36:30;;;;;;;21.85;15.77;;;;;;;;;;7333413;19;153660;-17
2022/05/21 03:39:02;;;;;;;22.60;15.95;;;;;;;;;;7332620;19;162071;-18
2022/05/21 03:41:38;;;;;;;20.00;14.27;;;;;;;;;;7332855;19;162423;-18
2022/05/21 03:44:09;;;;;;;20.52;15.57;;;;;;;;;;7333252;19;153909;-18
2022/05/21 03:46:40;;;;;;;20.25;14.13;;;;;;;;;;7331152;19;153974;-18
2022/05/21 03:49:12;;;;;;;21.73;15.20;;;;;;;;;;7330091;19;161835;-18
2022/05/21 03:51:43;;;;;;;21.38;14.98;;;;;;;;;;7332241;19;162305;-18
2022/05/21 03:54:14;;;;;;;20.23;14.63;;;;;;;;;;7332524;19;153509;-18
2022/05/21 03:56:48;;;;;;;22.83;15.60;;;;;;;;;;7332382;19;153599;-18
2022/05/21 03:59:20;;;;;;;21.38;14.90;;;;;;;;;;7332113;19;162173;-18
2022/05/21 04:01:51;;;;;;;20.02;14.20;;;;;;;;;;7331641;19;162967;-18
2022/05/21 04:04:22;;;;;;;18.90;14.45;;;;;;;;;;7332485;19;154013;-18
2022/05/21 04:06:54;;;;;;;19.98;14.25;;;;;;;;;;7332224;19;153882;-18
2022/05/21 04:09:28;;;;;;;19.90;14.40;;;;;;;;;;7329285;19;161897;-18
2022/05/21 04:12:03;;;;;;;18.15;13.93;;;;;;;;;;7331572;19;162557;-21
2022/05/21 04:14:34;;;;;;;19.38;14.32;;;;;;;;;;7330851;19;154205;-18
2022/05/21 04:17:13;;;;;;;18.70;13.68;;;;;;;;;;7330547;19;153984;-19
2022/05/21 04:19:45;;;;;;;21.65;14.45;;;;;;;;;;7331254;19;161938;-18
2022/05/21 04:22:17;;;;;;;20.45;14.23;;;;;;;;;;7331444;19;162510;-18
2022/05/21 04:24:48;;;;;;;18.95;13.55;;;;;;;;;;7331521;19;154122;-17
2022/05/21 04:27:22;;;;;;;20.45;13.80;;;;;;;;;;7331465;19;153665;-18
2022/05/21 04:29:53;;;;;;;17.58;13.50;;;;;;;;;;7328609;19;161997;-17
2022/05/21 04:32:25;;;;;;;18.65;13.25;;;;;;;;;;7330928;19;162358;-18
2022/05/21 04:34:56;;;;;;;19.00;13.27;;;;;;;;;;7331393;19;153902;-18
2022/05/21 04:37:27;;;;;;;17.42;13.20;;;;;;;;;;7331181;19;153641;-22
2022/05/21 04:39:58;;;;;;;17.23;12.60;;;;;;;;;;7330818;19;162049;-18
2022/05/21 04:42:32;;;;;;;17.35;13.20;;;;;;;;;;7330787;19;162589;-19
2022/05/21 04:45:04;;;;;;;18.13;12.77;;;;;;;;;;7333771;19;154099;-18
2022/05/21 04:47:35;;;;;;;18.98;13.57;;;;;;;;;;7330964;19;153651;-18
2022/05/21 04:50:10;;;;;;;18.52;12.68;;;;;;;;;;7326892;19;161942;-24
2022/05/21 04:52:41;;;;;;;16.27;13.18;;;;;;;;;;7330496;19;162638;-18
2022/05/21 04:55:13;;;;;;;16.15;11.90;;;;;;;;;;7331029;19;153966;-18
2022/05/21 04:57:47;;;;;;;15.73;11.88;;;;;;;;;;7329115;19;153552;-18
2022/05/21 05:00:20;;;;;;;18.60;12.88;;;;;;;;;;7330007;19;162033;-18
2022/05/21 05:02:52;;;;;;;16.17;12.63;;;;;;;;;;7334539;19;162539;-18
2022/05/21 05:05:23;;;;;;;18.52;12.20;;;;;;;;;;7330661;19;154124;-17
2022/05/21 05:07:55;;;;;;;16.40;11.90;;;;;;;;;;7331810;19;153629;-18
2022/05/21 05:10:26;;;;;;;17.23;12.55;;;;;;;;;;7327296;19;162103;-18
2022/05/21 05:13:00;;;;;;;17.33;11.25;;;;;;;;;;7330070;19;162683;-18
2022/05/21 05:15:31;;;;;;;16.88;12.15;;;;;;;;;;7330353;19;154204;-18
2022/05/21 05:18:04;;;;;;;14.98;11.07;;;;;;;;;;7329899;19;153584;-18
2022/05/21 05:20:36;;;;;;;17.10;11.82;;;;;;;;;;7329785;19;161921;-21
2022/05/21 05:23:09;;;;;;;14.93;11.50;;;;;;;;;;7329393;19;162590;-18
2022/05/21 05:25:41;;;;;;;15.52;12.57;;;;;;;;;;7329954;19;153797;-18
2022/05/21 05:28:20;;;;;;;16.98;11.88;;;;;;;;;;7328603;19;153877;-18
2022/05/21 05:30:52;;;;;;;14.93;11.57;;;;;;;;;;7329270;19;161925;-18
2022/05/21 05:33:25;;;;;;;14.90;11.27;;;;;;;;;;7329103;19;162713;-18
2022/05/21 05:35:56;;;;;;;15.75;11.77;;;;;;;;;;7329650;19;154025;-17
2022/05/21 05:38:27;;;;;;;13.60;9.48;;;;;;;;;;7332514;19;153824;-18
2022/05/21 05:41:01;;;;;;;13.63;8.75;;;;;;;;;;7329022;19;161912;-18
2022/05/21 05:43:37;;;;;;;11.52;8.27;;;;;;;;;;7328857;19;162551;-18
2022/05/21 05:46:08;;;;;;;16.25;8.40;;;;;;;;;;7329742;19;154108;-18
2022/05/21 05:48:40;;;;;;;11.95;8.00;;;;;;;;;;7332342;19;153568;-18
2022/05/21 05:51:11;;;;;;;11.10;6.50;;;;;;;;;;7330552;19;161967;-18
2022/05/21 05:53:44;;;;;;;11.70;6.82;;;;;;;;;;7332183;19;162507;-18
2022/05/21 05:56:16;;;;;;;10.98;6.28;;;;;;;;;;7332277;19;154145;-17
2022/05/21 06:01:34;;;;;;;9.68;6.05;;;;;;;;;;7328386;19;161796;-18
2022/05/21 06:04:05;;;;;;;9.93;5.82;;;;;;;;;;7325065;19;162396;-18
2022/05/21 06:06:36;;;;;;;10.80;5.70;;;;;;;;;;7327771;19;154254;-18
2022/05/21 06:09:09;;;;;;;10.43;5.50;;;;;;;;;;7325839;19;153792;-18
2022/05/21 06:11:40;;;;;;;6.72;4.88;;;;;;;;;;7334883;19;161828;-18
2022/05/21 06:14:14;;;;;;;6.40;4.53;;;;;;;;;;7333724;19;162492;-18
2022/05/21 06:16:45;;;;;;;7.75;5.05;;;;;;;;;;7335098;19;154009;-18
2022/05/21 06:19:17;;;;;;;11.88;6.13;;;;;;;;;;7335149;19;153541;-18
2022/05/21 06:21:48;;;;;;;10.35;5.53;;;;;;;;;;7334775;19;161972;-18
2022/05/21 06:24:20;;;;;;;7.97;5.10;;;;;;;;;;7333643;19;162582;-18
2022/05/21 06:26:51;;;;;;;9.18;5.47;;;;;;;;;;7335180;19;154600;-18
2022/05/21 06:29:25;;;;;;;7.78;5.05;;;;;;;;;;7334739;19;153288;-18
2022/05/21 06:31:57;;;;;;;8.93;5.35;;;;;;;;;;7334393;19;161801;-18
2022/05/21 06:34:29;;;;;;;7.82;5.18;;;;;;;;;;7334351;19;162337;-18
2022/05/21 06:37:06;;;;;;;8.55;4.95;;;;;;;;;;7334688;19;154188;-18
2022/05/21 06:39:38;;;;;;;10.00;5.10;;;;;;;;;;7334795;19;153587;-19
2022/05/21 06:42:11;;;;;;;8.90;5.22;;;;;;;;;;7333439;19;161991;-18
2022/05/21 06:44:45;;;;;;;8.65;4.70;;;;;;;;;;7334193;19;162371;-18
2022/05/21 06:47:17;;;;;;;8.35;4.85;;;;;;;;;;7333453;19;154101;-18
2022/05/21 06:49:48;;;;;;;8.23;5.00;;;;;;;;;;7333724;19;153824;-17
2022/05/21 06:52:22;;;;;;;9.73;5.05;;;;;;;;;;7333976;19;161998;-20
2022/05/21 06:54:58;;;;;;;11.52;5.22;;;;;;;;;;7337369;19;162600;-19
2022/05/21 06:57:30;;;;;;;8.75;5.07;;;;;;;;;;7334216;19;154034;-18
2022/05/21 07:00:03;;;;;;;8.35;5.13;;;;;;;;;;7333043;19;153843;-18
2022/05/21 07:02:35;;;;;;;9.98;5.45;;;;;;;;;;7333897;19;161978;-18
2022/05/21 07:07:51;;;;;;;7.88;5.53;;;;;;;;;;7334013;19;154123;-18
2022/05/21 07:10:23;;;;;;;8.20;5.72;;;;;;;;;;7333266;19;153541;-17
2022/05/21 07:12:55;;;;;;;6.95;5.07;;;;;;;;;;7332434;19;161838;-18
2022/05/21 07:15:29;;;;;;;8.75;5.78;;;;;;;;;;7333458;19;162452;-17
2022/05/21 07:18:03;;;;;;;8.23;5.43;;;;;;;;;;7333765;19;154211;-17
2022/05/21 07:20:35;;;;;;;7.68;5.43;;;;;;;;;;7332375;19;153819;-17
2022/05/21 07:23:06;;;;;;;7.13;5.20;;;;;;;;;;7331595;19;162005;-17
2022/05/21 07:25:39;;;;;;;8.00;6.00;;;;;;;;;;7332962;19;162508;-17
2022/05/21 07:28:10;;;;;;;;;;;;;;;;;;7332761;19;154154;-17
2022/05/21 07:30:45;;;;;;;9.55;6.15;;;;;;;;;;7332369;19;153566;-17
2022/05/21 07:33:20;;;;;;;7.43;6.45;;;;;;;;;;7331822;19;162028;-17
2022/05/21 07:35:52;;;;;;;9.57;6.88;;;;;;;;;;7332668;19;162548;-17
2022/05/21 07:38:23;;;;;;;9.27;6.97;;;;;;;;;;7331933;19;154513;-18
2022/05/21 07:40:55;;;;;;;10.20;7.10;;;;;;;;;;7332982;19;153547;-19
2022/05/21 07:43:30;;;;;;;8.27;7.20;;;;;;;;;;7332519;19;161989;-18
2022/05/21 07:46:06;;;;;;;8.65;7.10;;;;;;;;;;7331404;19;162409;-19
2022/05/21 07:48:37;;;;;;;7.80;6.82;;;;;;;;;;7331830;19;154056;-18
2022/05/21 07:51:10;;;;;;;7.47;6.70;;;;;;;;;;7331503;19;153524;-18
2022/05/21 07:53:42;;;;;;;9.57;7.55;;;;;;;;;;7332500;19;161972;-18
2022/05/21 07:56:16;;;;;;;9.80;7.35;;;;;;;;;;7332432;19;162774;-18
2022/05/21 07:58:49;;;;;;;8.70;7.55;;;;;;;;;;7332779;19;154282;-20
2022/05/21 08:01:23;;;;;;;;;;;;;;;;;;7333134;19;153741;-19
2022/05/21 08:03:54;;;;;;;10.63;6.90;;;;;;;;;;7332061;19;162079;-19
2022/05/21 08:06:25;;;;;;;9.15;7.20;;;;;;;;;;7332106;19;162559;-19
2022/05/21 08:08:58;;;;;;;8.35;6.97;;;;;;;;;;7331146;19;154511;-19
2022/05/21 08:11:30;;;;;;;10.07;7.15;;;;;;;;;;7331366;19;153491;-19
2022/05/21 08:14:01;;;;;;;8.55;7.13;;;;;;;;;;7331843;19;162028;-19
2022/05/21 08:16:38;;;;;;;9.90;6.88;;;;;;;;;;7330893;19;162503;-19
2022/05/21 08:19:12;;;;;;;8.10;6.80;;;;;;;;;;7331588;19;154055;-19
2022/05/21 08:21:43;;;;;;;9.30;6.95;;;;;;;;;;7332184;19;153554;-18
2022/05/21 08:26:59;;;;;;;9.20;7.53;;;;;;;;;;7330096;19;162401;-19
2022/05/21 08:29:32;;;;;;;8.73;6.63;;;;;;;;;;7331663;19;154378;-18
2022/05/21 08:32:13;;;;;;;9.10;6.72;;;;;;;;;;7327793;19;153505;-18
2022/05/21 08:34:44;;;;;;;8.32;5.95;;;;;;;;;;7330927;19;161829;-18
2022/05/21 08:37:15;;;;;;;10.43;7.05;;;;;;;;;;7329719;19;162741;-19
2022/05/21 08:39:46;;;;;;;8.98;6.80;;;;;;;;;;7330397;19;154451;-19
2022/05/21 08:42:22;;;;;;;10.18;7.10;;;;;;;;;;7329873;19;153516;-19
2022/05/21 08:45:01;;;;;;;6.97;6.25;;;;;;;;;;7330653;19;161795;-19
2022/05/21 08:47:39;;;;;;;8.77;6.45;;;;;;;;;;7330795;19;162424;-19
2022/05/21 08:50:15;;;;;;;8.98;6.85;;;;;;;;;;7330548;19;154185;-18
2022/05/21 08:52:57;;;;;;;8.20;6.65;;;;;;;;;;7328596;19;153683;-19
2022/05/21 08:55:33;;;;;;;8.70;7.75;;;;;;;;;;7334847;19;161862;-18
2022/05/21 08:58:10;;;;;;;9.02;6.60;;;;;;;;;;7329384;19;162422;-19
2022/05/21 09:00:46;;;;;;;8.88;6.47;;;;;;;;;;7330671;19;154038;-18
2022/05/21 09:03:22;;;;;;;8.10;6.45;;;;;;;;;;7330753;19;153703;-18
2022/05/21 09:06:02;;;;;;;8.38;6.40;;;;;;;;;;7330161;19;162496;-18
2022/05/21 09:08:41;;;;;;;7.15;6.38;;;;;;;;;;7329453;19;162448;-19
2022/05/21 09:11:16;;;;;;;6.45;5.85;;;;;;;;;;7330214;19;154072;-18
2022/05/21 09:13:58;;;;;;;7.15;6.15;;;;;;;;;;7329159;19;153606;-19
2022/05/21 09:19:28;;;;;;;7.95;6.22;;;;;;;;;;7330002;19;162461;-18
2022/05/21 09:22:07;;;;;;;7.32;5.78;;;;;;;;;;7330263;19;154056;-18
2022/05/21 09:24:44;;;;;;;7.00;5.67;;;;;;;;;;7330151;19;154277;-18
2022/05/21 09:27:33;;;;;;;6.03;5.43;;;;;;;;;;7328469;19;161989;-19
2022/05/21 09:30:19;;;;;;;6.18;5.28;;;;;;;;;;7329623;19;162522;-18
2022/05/21 09:32:52;;;;;;;6.82;5.63;;;;;;;;;;7327891;19;154024;-19
2022/05/21 09:35:32;;;;;;;5.90;5.30;;;;;;;;;;7329888;19;153580;-19
2022/05/21 09:38:15;;;;;;;5.70;4.65;;;;;;;;;;7329259;19;162035;-19
2022/05/21 09:40:46;;;;;;;5.82;4.80;;;;;;;;;;7329238;19;162442;-18
2022/05/21 09:46:26;;;;;;;5.80;5.18;;;;;;;;;;7327802;19;153739;-18
2022/05/21 09:49:16;;;;;;;8.90;5.20;;;;;;;;;;7327597;19;161564;-19
2022/05/21 09:51:59;;;;;;;5.13;4.43;;;;;;;;;;7328365;19;162520;-19
2022/05/21 09:54:36;;;;;;;6.95;4.80;;;;;;;;;;7329364;19;154133;-19
2022/05/21 09:57:08;;;;;;;8.13;4.60;;;;;;;;;;7329184;19;153822;-21
2022/05/21 09:59:40;;;;;;;5.07;4.57;;;;;;;;;;7328963;19;161930;-19
2022/05/21 10:02:19;;;;;;;6.57;4.93;;;;;;;;;;7327397;19;163031;-18
2022/05/21 10:04:55;;;;;;;4.75;4.25;;;;;;;;;;7328641;19;154443;-18
2022/05/21 10:13:10;;;;;;;8.07;5.40;;;;;;;;;;7327796;19;162622;-18
2022/05/21 10:15:45;;;;;;;7.18;4.45;;;;;;;;;;7331513;19;154092;-18
2022/05/21 10:18:27;;;;;;;6.32;4.72;;;;;;;;;;7332092;19;153552;-19
2022/05/21 10:21:04;;;;;;;4.53;3.45;;;;;;;;;;7332153;19;161889;-19
2022/05/21 10:23:46;;;;;;;6.35;4.28;;;;;;;;;;7329201;19;162510;-18
2022/05/21 10:26:41;;;;;;;7.03;4.97;;;;;;;;;;7330614;19;154114;-19
2022/05/21 10:29:55;;;;;;;6.57;4.93;;;;;;;;;;7330861;19;153656;-19
2022/05/21 10:32:46;;;;;;;5.85;4.45;;;;;;;;;;7325158;19;162623;-19
2022/05/21 10:35:31;;;;;;;7.00;4.38;;;;;;;;;;7327342;19;162418;-16
2022/05/21 10:38:08;;;;;;;4.72;3.97;;;;;;;;;;7327429;19;154274;-18
2022/05/21 10:40:47;;;;;;;5.10;4.03;;;;;;;;;;7327557;19;153929;-19
2022/05/21 10:43:34;;;;;;;4.85;4.00;;;;;;;;;;7331843;19;161961;-17
2022/05/21 10:46:20;;;;;;;5.65;4.60;;;;;;;;;;7326770;19;162523;-17
2022/05/21 10:49:07;;;;;;;4.25;3.78;;;;;;;;;;7327267;19;154373;-17
2022/05/21 10:51:42;;;;;;;6.38;4.50;;;;;;;;;;7330647;19;153681;-17
2022/05/21 10:54:31;;;;;;;4.70;3.63;;;;;;;;;;7327892;19;161757;-17
2022/05/21 10:57:23;;;;;;;5.00;4.15;;;;;;;;;;7332486;19;162161;-18
2022/05/21 11:00:11;;;;;;;5.73;4.43;;;;;;;;;;7333566;19;154088;-17
2022/05/21 11:03:15;;;;;;;4.30;3.60;;;;;;;;;;7332578;19;153675;-17
2022/05/21 11:05:59;;;;;;;4.70;3.90;;;;;;;;;;7334663;19;162013;-17
2022/05/21 11:08:40;;;;;;;4.53;4.00;;;;;;;;;;7329515;19;162591;-17
2022/05/21 11:11:23;;;;;;;5.68;4.15;;;;;;;;;;7334279;19;154232;-17
2022/05/21 11:14:04;;;;;;;6.25;4.88;;;;;;;;;;7331939;19;153875;-17
2022/05/21 11:16:43;;;;;;;5.45;4.38;;;;;;;;;;7332442;19;161958;-17
2022/05/21 11:19:20;;;;;;;5.80;4.40;;;;;;;;;;7332780;19;162352;-17
2022/05/21 11:21:55;;;;;;;7.05;4.30;;;;;;;;;;7329219;19;154315;-17
2022/05/21 11:24:34;;;;;;;5.53;4.45;;;;;;;;;;7332126;19;154191;-17
2022/05/21 11:27:12;;;;;;;4.90;4.15;;;;;;;;;;7331773;19;162237;-17
2022/05/21 11:29:52;;;;;;;7.22;4.88;;;;;;;;;;7332684;19;162379;-18
2022/05/21 11:38:16;;;;;;;6.20;4.28;;;;;;;;;;7329391;19;161899;-18
2022/05/21 11:44:55;;;;;;;6.05;4.40;;;;;;;;;;7331482;19;154104;-17
2022/05/21 11:46:56;;;;;;;8.27;4.55;;;;;;;;;;7332432;19;153750;-17
2022/05/21 11:49:40;;;;;;;6.43;4.25;;;;;;;;;;7332389;19;162086;-17
2022/05/21 11:52:26;;;;;;;;;;;;;;;;;;7332840;19;162512;-17
2022/05/21 11:55:13;;;;;;;4.85;4.35;;;;;;;;;;7330307;19;154452;-17
2022/05/21 11:57:48;;;;;;;5.40;4.55;;;;;;;;;;7332617;19;153584;-17
2022/05/21 12:00:55;;;;;;;5.15;3.70;;;;;;;;;;7332147;19;161870;-18
2022/05/21 12:03:56;;;;;;;6.22;4.50;;;;;;;;;;7331015;19;162659;-17
2022/05/21 12:06:35;;;;;;;4.47;3.90;;;;;;;;;;7332453;19;154058;-19
2022/05/21 12:09:27;;;;;;;5.15;3.88;;;;;;;;;;7329484;19;153582;-17
2022/05/21 12:12:14;;;;;;;;;;;;;;;;;;7331242;19;162042;-17
2022/05/21 12:14:53;;;;;;;4.57;3.70;;;;;;;;;;7329922;19;162716;-17
2022/05/21 12:17:46;;;;;;;4.50;3.35;;;;;;;;;;7332289;19;153774;-17
2022/05/21 12:20:45;;;;;;;4.32;3.72;;;;;;;;;;7332255;19;153582;-18
2022/05/21 12:23:37;;;;;;;4.80;3.58;;;;;;;;;;7331820;19;161794;-18
2022/05/21 12:26:20;;;;;;;4.72;3.65;;;;;;;;;;7331267;19;162468;-18
2022/05/21 12:29:03;;;;;;;5.20;3.43;;;;;;;;;;7331931;19;154333;-18
2022/05/21 12:31:42;;;;;;;4.18;3.78;;;;;;;;;;7331833;19;153573;-17
2022/05/21 12:34:32;;;;;;;5.07;4.05;;;;;;;;;;7329974;19;161831;-18
2022/05/21 12:37:20;;;;;;;4.35;3.38;;;;;;;;;;7331409;19;162359;-18
2022/05/21 12:40:01;;;;;;;7.13;3.97;;;;;;;;;;7331424;19;154074;-18
2022/05/21 12:42:39;;;;;;;4.90;3.53;;;;;;;;;;7331437;19;153555;-17
2022/05/21 12:45:16;;;;;;;6.57;3.85;;;;;;;;;;7330696;19;161956;-19
2022/05/21 12:47:48;;;;;;;5.97;3.58;;;;;;;;;;7330865;19;162382;-18
2022/05/21 12:50:23;;;;;;;6.30;3.53;;;;;;;;;;7331273;19;153997;-18
2022/05/21 12:53:00;;;;;;;5.30;3.97;;;;;;;;;;7331047;19;153874;-18
2022/05/21 12:55:35;;;;;;;4.53;3.90;;;;;;;;;;7328396;19;161990;-18
2022/05/21 12:58:22;;;;;;;5.78;3.80;;;;;;;;;;7330754;19;162373;-18
2022/05/21 13:00:56;;;;;;;4.82;3.60;;;;;;;;;;7330144;19;154371;-18
2022/05/21 13:03:33;;;;;;;6.40;4.40;;;;;;;;;;7329607;19;153729;-18
2022/05/21 13:06:09;;;;;;;4.07;3.08;;;;;;;;;;7330470;19;161947;-18
2022/05/21 13:08:44;;;;;;;4.43;3.50;;;;;;;;;;7329389;19;162526;-29
2022/05/21 13:11:20;;;;;;;6.75;3.80;;;;;;;;;;7330682;19;154127;-18
2022/05/21 13:13:59;;;;;;;5.55;3.33;;;;;;;;;;7329931;19;153620;-19
2022/05/21 13:16:32;;;;;;;5.78;3.92;;;;;;;;;;7331233;19;161973;-18
2022/05/21 13:19:29;;;;;;;4.32;3.08;;;;;;;;;;7328634;19;162396;-17
2022/05/21 13:22:08;;;;;;;3.50;3.10;;;;;;;;;;7330200;19;154171;-18
2022/05/21 13:24:50;;;;;;;5.85;3.60;;;;;;;;;;7330110;19;153507;-17
2022/05/21 13:27:24;;;;;;;4.32;2.85;;;;;;;;;;7329692;19;161971;-18
2022/05/21 13:29:57;;;;;;;3.75;3.10;;;;;;;;;;7329636;19;162661;-17
2022/05/21 13:32:29;;;;;;;;;;;;;;;;;;7330277;19;154176;-18
2022/05/21 13:35:02;;;;;;;5.90;3.50;;;;;;;;;;7328106;19;153607;-18
2022/05/21 13:37:36;;;;;;;8.15;3.42;;;;;;;;;;7329252;19;161955;-18
2022/05/21 13:40:16;;;;;;;3.67;3.00;;;;;;;;;;7329142;19;162559;-18
2022/05/21 13:42:51;;;;;;;5.15;2.92;;;;;;;;;;7329666;19;154328;-19
2022/05/21 13:45:29;;;;;;;4.35;3.05;;;;;;;;;;7329366;19;153733;-18
2022/05/21 13:48:03;;;;;;;4.75;2.90;;;;;;;;;;7328973;19;161810;-18
2022/05/21 13:50:35;;;;;;;4.13;3.40;;;;;;;;;;7328818;19;162540;-18
2022/05/21 13:53:08;;;;;;;6.07;3.03;;;;;;;;;;7329170;19;154029;-19
2022/05/21 13:55:56;;;;;;;4.72;2.90;;;;;;;;;;7326843;19;153832;-19
2022/05/21 13:58:33;;;;;;;;;;;;;;;;;;7329059;19;161917;-18
2022/05/21 14:01:08;;;;;;;3.58;2.65;;;;;;;;;;7328795;19;162420;-18
2022/05/21 14:03:46;;;;;;;4.88;2.83;;;;;;;;;;7329096;19;154084;-18
2022/05/21 14:06:19;;;;;;;5.95;3.53;;;;;;;;;;7328693;19;153665;-19
2022/05/21 14:08:56;;;;;;;3.78;2.67;;;;;;;;;;7327135;19;161878;-18
2022/05/21 14:11:34;;;;;;;6.13;2.70;;;;;;;;;;7328186;19;162414;-19
2022/05/21 14:14:08;;;;;;;2.70;2.50;;;;;;;;;;7328588;19;154105;-18
2022/05/21 14:16:42;;;;;;;3.70;2.63;;;;;;;;;;7325965;19;153574;-18
2022/05/21 14:19:27;;;;;;;6.85;3.45;;;;;;;;;;7327973;19;161973;-19
2022/05/21 14:22:05;;;;;;;4.85;2.67;;;;;;;;;;7327885;19;162371;-18
2022/05/21 14:24:39;;;;;;;3.47;2.72;;;;;;;;;;7327028;19;154205;-18
2022/05/21 14:27:27;;;;;;;3.17;2.67;;;;;;;;;;7328136;19;153609;-18
2022/05/21 14:30:04;;;;;;;4.20;2.60;;;;;;;;;;7327581;19;161807;-18
2022/05/21 14:32:37;;;;;;;6.72;3.00;;;;;;;;;;7334457;19;162510;-18
2022/05/21 14:35:15;;;;;;;3.53;2.40;;;;;;;;;;7332576;19;154341;-19
2022/05/21 14:37:48;;;;;;;5.22;3.05;;;;;;;;;;7333484;19;153558;-19
2022/05/21 14:40:24;;;;;;;4.43;2.88;;;;;;;;;;7334330;19;161927;-19
2022/05/21 14:43:06;;;;;;;7.25;3.17;;;;;;;;;;7333894;19;162891;-18
2022/05/21 14:45:37;;;;;;;3.67;2.70;;;;;;;;;;7334590;19;154076;-18
2022/05/21 14:48:07;;;;;;;5.43;2.63;;;;;;;;;;7333170;19;153630;-18
2022/05/21 14:53:31;;;;;;;3.17;2.85;;;;;;;;;;7333881;19;162460;-18
2022/05/21 14:56:10;;;;;;;5.85;3.08;;;;;;;;;;7332679;19;154325;-18
2022/05/21 14:58:44;;;;;;;4.82;2.70;;;;;;;;;;7334098;19;153524;-18
2022/05/21 15:01:16;;;;;;;4.32;2.60;;;;;;;;;;7333287;19;162028;-19
2022/05/21 15:03:47;;;;;;;3.92;2.80;;;;;;;;;;7337598;19;162371;-19
2022/05/21 15:06:23;;;;;;;2.80;2.55;;;;;;;;;;7332258;19;154208;-19
2022/05/21 15:08:57;;;;;;;3.92;3.15;;;;;;;;;;7332243;19;153563;-18
2022/05/21 15:11:29;;;;;;;3.80;2.70;;;;;;;;;;7333156;19;161947;-18
2022/05/21 15:14:04;;;;;;;3.42;2.35;;;;;;;;;;7335902;19;162405;-19
2022/05/21 15:16:35;;;;;;;4.15;3.25;;;;;;;;;;7331792;19;154028;-19
2022/05/21 15:19:06;;;;;;;5.40;2.72;;;;;;;;;;7333401;19;153490;-18
2022/05/21 15:21:41;;;;;;;5.05;3.03;;;;;;;;;;7332985;19;162048;-19
2022/05/21 15:24:12;;;;;;;2.90;2.60;;;;;;;;;;7331656;19;162376;-18
2022/05/21 15:26:44;;;;;;;3.33;2.38;;;;;;;;;;7332109;19;154247;-17
2022/05/21 15:29:19;;;;;;;3.58;2.88;;;;;;;;;;7331793;19;154044;-18
2022/05/21 15:31:50;;;;;;;6.30;2.58;;;;;;;;;;7332799;19;161937;-19
2022/05/21 15:34:21;;;;;;;3.80;2.42;;;;;;;;;;7332557;19;162492;-18
2022/05/21 15:36:52;;;;;;;4.82;3.10;;;;;;;;;;7330940;19;153756;-18
2022/05/21 15:39:26;;;;;;;4.18;2.53;;;;;;;;;;7331396;19;153697;-19
2022/05/21 15:42:00;;;;;;;10.30;3.00;;;;;;;;;;7330439;19;161861;-18
2022/05/21 15:44:34;;;;;;;2.83;2.35;;;;;;;;;;7331967;19;162551;-19
2022/05/21 15:47:06;;;;;;;6.82;2.70;;;;;;;;;;7333889;19;154118;-26
2022/05/21 15:49:36;;;;;;;6.70;2.85;;;;;;;;;;7335473;19;153538;-19
2022/05/21 15:52:17;;;;;;;7.15;2.67;;;;;;;;;;7332623;19;161660;-19